createdAt,value
2017-11-05T00:00:19.879Z,32.7
2017-11-05T00:01:19.835Z,32.6
2017-11-05T00:02:20.919Z,32.7
2017-11-05T00:03:19.886Z,32.7
2017-11-05T00:04:20.122Z,32.6
2017-11-05T00:05:20.103Z,32.6
2017-11-05T00:06:21.187Z,32.7
2017-11-05T00:07:20.185Z,32.7
2017-11-05T00:08:19.927Z,32.7
2017-11-05T00:09:21.320Z,32.7
2017-11-05T00:10:21.403Z,32.7
2017-11-05T00:11:21.155Z,32.7
2017-11-05T00:12:20.340Z,32.7
2017-11-05T00:13:21.540Z,32.7
2017-11-05T00:14:21.380Z,32.7
2017-11-05T00:15:20.559Z,32.7
2017-11-05T00:16:21.700Z,32.7
2017-11-05T00:17:21.594Z,32.7
2017-11-05T00:18:20.755Z,32.7
2017-11-05T00:19:20.835Z,32.7
2017-11-05T00:20:20.720Z,32.7
2017-11-05T00:21:20.992Z,32.7
2017-11-05T00:22:22.115Z,32.7
2017-11-05T00:23:21.105Z,32.7
2017-11-05T00:24:21.992Z,32.7
2017-11-05T00:25:20.935Z,32.7
2017-11-05T00:26:21.206Z,32.7
2017-11-05T00:27:22.354Z,32.7
2017-11-05T00:28:22.384Z,32.6
2017-11-05T00:29:22.475Z,32.7
2017-11-05T00:30:21.408Z,32.7
2017-11-05T00:31:22.621Z,32.6
2017-11-05T00:32:22.664Z,32.7
2017-11-05T00:33:21.400Z,32.7
2017-11-05T00:34:21.499Z,32.7
2017-11-05T00:35:22.614Z,32.7
2017-11-05T00:36:22.652Z,32.7
2017-11-05T00:37:22.975Z,32.6
2017-11-05T00:38:21.745Z,32.6
2017-11-05T00:39:21.869Z,32.7
2017-11-05T00:40:23.190Z,32.7
2017-11-05T00:41:23.282Z,32.7
2017-11-05T00:42:23.112Z,32.7
2017-11-05T00:43:23.095Z,32.7
2017-11-05T00:44:22.134Z,32.7
2017-11-05T00:45:22.469Z,32.7
2017-11-05T00:46:23.350Z,32.7
2017-11-05T00:47:23.382Z,32.7
2017-11-05T00:48:23.482Z,32.7
2017-11-05T00:49:23.506Z,32.7
2017-11-05T00:50:23.506Z,32.7
2017-11-05T00:51:22.476Z,32.7
2017-11-05T00:52:22.578Z,32.7
2017-11-05T00:59:50.956Z,32.7
2017-11-05T01:00:50.970Z,32.8
2017-11-05T01:01:50.836Z,32.8
2017-11-05T01:02:52.010Z,32.8
2017-11-05T01:03:51.172Z,32.8
2017-11-05T01:04:52.236Z,32.8
2017-11-05T01:05:52.309Z,32.8
2017-11-05T01:06:52.351Z,32.8
2017-11-05T01:07:52.437Z,32.8
2017-11-05T01:08:51.163Z,32.8
2017-11-05T01:09:51.222Z,32.8
2017-11-05T01:10:52.277Z,32.8
2017-11-05T01:11:52.544Z,32.8
2017-11-05T01:12:51.497Z,32.8
2017-11-05T01:13:52.638Z,32.8
2017-11-05T01:14:52.456Z,32.7
2017-11-05T01:15:52.517Z,32.8
2017-11-05T01:16:51.477Z,32.7
2017-11-05T01:17:51.664Z,32.7
2017-11-05T01:18:51.720Z,32.7
2017-11-05T01:19:52.885Z,32.7
2017-11-05T01:20:51.654Z,32.7
2017-11-05T01:21:51.735Z,32.7
2017-11-05T01:22:51.995Z,32.8
2017-11-05T01:23:52.913Z,32.8
2017-11-05T01:24:52.934Z,32.7
2017-11-05T01:25:53.231Z,32.7
2017-11-05T01:26:52.180Z,32.7
2017-11-05T01:27:53.393Z,32.7
2017-11-05T01:28:52.100Z,32.7
2017-11-05T01:29:53.385Z,32.7
2017-11-05T01:30:53.406Z,32.7
2017-11-05T01:31:52.180Z,32.7
2017-11-05T01:32:53.249Z,32.7
2017-11-05T01:33:52.219Z,32.7
2017-11-05T01:34:53.543Z,32.7
2017-11-05T01:35:53.319Z,32.7
2017-11-05T01:36:53.587Z,32.7
2017-11-05T01:37:52.525Z,32.7
2017-11-05T01:38:52.532Z,32.7
2017-11-05T01:39:53.681Z,32.7
2017-11-05T01:40:53.528Z,32.7
2017-11-05T01:41:52.510Z,32.7
2017-11-05T01:42:53.600Z,32.7
2017-11-05T01:43:53.814Z,32.7
2017-11-05T01:44:53.895Z,32.7
2017-11-05T01:45:53.892Z,32.7
2017-11-05T01:46:52.830Z,32.7
2017-11-05T01:47:52.833Z,32.7
2017-11-05T01:48:52.883Z,32.7
2017-11-05T01:49:52.913Z,32.7
2017-11-05T01:50:52.873Z,32.7
2017-11-05T01:51:54.190Z,32.7
2017-11-05T01:52:53.180Z,32.7
2017-11-05T01:53:54.316Z,32.7
2017-11-05T01:54:54.367Z,32.7
2017-11-05T01:55:54.201Z,32.7
2017-11-05T01:56:53.451Z,32.7
2017-11-05T01:57:54.380Z,32.7
2017-11-05T01:58:53.548Z,32.7
2017-11-05T01:59:53.597Z,32.7
2017-11-05T02:00:54.921Z,32.7
2017-11-05T02:01:53.552Z,32.7
2017-11-05T02:02:54.737Z,32.7
2017-11-05T02:03:53.887Z,32.7
2017-11-05T02:04:54.969Z,32.7
2017-11-05T02:05:54.841Z,32.7
2017-11-05T02:06:53.784Z,32.7
2017-11-05T02:07:53.858Z,32.7
2017-11-05T02:08:53.922Z,32.7
2017-11-05T02:09:55.268Z,32.7
2017-11-05T02:10:54.278Z,32.8
2017-11-05T02:11:55.195Z,32.7
2017-11-05T02:12:54.382Z,32.7
2017-11-05T02:13:54.276Z,32.7
2017-11-05T02:14:54.432Z,32.7
2017-11-05T02:15:54.973Z,32.7
2017-11-05T02:16:54.630Z,32.7
2017-11-05T02:17:54.817Z,32.7
2017-11-05T02:18:56.076Z,32.7
2017-11-05T02:19:54.890Z,32.7
2017-11-05T02:20:54.715Z,32.7
2017-11-05T02:21:54.720Z,32.7
2017-11-05T02:22:56.208Z,32.7
2017-11-05T02:23:56.039Z,32.7
2017-11-05T02:24:56.305Z,32.7
2017-11-05T02:25:54.682Z,32.7
2017-11-05T02:26:56.019Z,32.7
2017-11-05T02:27:55.801Z,32.7
2017-11-05T02:28:56.059Z,32.7
2017-11-05T02:29:54.792Z,32.7
2017-11-05T02:30:56.133Z,32.7
2017-11-05T02:31:55.967Z,32.7
2017-11-05T02:32:54.927Z,32.7
2017-11-05T02:33:56.041Z,32.7
2017-11-05T02:34:55.247Z,32.7
2017-11-05T02:35:56.160Z,32.7
2017-11-05T02:36:56.406Z,32.7
2017-11-05T02:37:56.245Z,32.7
2017-11-05T02:38:55.277Z,32.7
2017-11-05T02:39:55.547Z,32.7
2017-11-05T02:40:56.472Z,32.7
2017-11-05T02:41:55.703Z,32.7
2017-11-05T02:42:56.868Z,32.7
2017-11-05T02:43:55.649Z,32.7
2017-11-05T02:44:56.992Z,32.7
2017-11-05T02:45:56.817Z,32.7
2017-11-05T02:46:57.055Z,32.7
2017-11-05T02:47:57.099Z,32.7
2017-11-05T02:48:56.372Z,32.7
2017-11-05T02:49:57.202Z,32.7
2017-11-05T02:50:57.331Z,32.7
2017-11-05T02:51:55.996Z,32.8
2017-11-05T02:52:56.207Z,32.7
2017-11-05T02:53:57.302Z,32.8
2017-11-05T02:54:57.164Z,32.7
2017-11-05T02:55:57.233Z,32.7
2017-11-05T02:56:57.269Z,32.7
2017-11-05T02:57:56.288Z,32.7
2017-11-05T02:58:56.257Z,32.7
2017-11-05T02:59:57.396Z,32.7
2017-11-05T03:00:57.412Z,32.7
2017-11-05T03:01:57.463Z,32.8
2017-11-05T03:02:57.453Z,32.8
2017-11-05T03:03:56.370Z,32.8
2017-11-05T03:04:57.728Z,32.8
2017-11-05T03:05:56.703Z,32.8
2017-11-05T03:06:56.822Z,32.7
2017-11-05T03:07:57.649Z,32.7
2017-11-05T03:08:56.880Z,32.7
2017-11-05T03:09:56.987Z,32.7
2017-11-05T03:10:58.075Z,32.8
2017-11-05T03:11:56.999Z,32.8
2017-11-05T03:12:58.125Z,32.8
2017-11-05T03:13:57.078Z,32.8
2017-11-05T03:14:58.191Z,32.8
2017-11-05T03:15:57.995Z,32.8
2017-11-05T03:16:56.953Z,32.8
2017-11-05T03:17:58.356Z,32.8
2017-11-05T03:18:57.331Z,32.8
2017-11-05T03:19:57.224Z,32.8
2017-11-05T03:20:57.277Z,32.8
2017-11-05T03:21:57.343Z,32.8
2017-11-05T03:22:58.674Z,32.8
2017-11-05T03:23:57.470Z,32.8
2017-11-05T03:24:58.626Z,32.8
2017-11-05T03:25:58.913Z,32.8
2017-11-05T03:26:58.936Z,32.8
2017-11-05T03:27:58.796Z,32.8
2017-11-05T03:28:59.008Z,32.8
2017-11-05T03:29:57.996Z,32.8
2017-11-05T03:30:57.981Z,32.8
2017-11-05T03:31:58.027Z,32.8
2017-11-05T03:32:57.885Z,32.8
2017-11-05T03:33:58.958Z,32.8
2017-11-05T03:34:58.154Z,32.8
2017-11-05T03:35:59.295Z,32.8
2017-11-05T03:36:59.364Z,32.8
2017-11-05T03:37:59.198Z,32.8
2017-11-05T03:38:59.460Z,32.8
2017-11-05T03:39:58.458Z,32.8
2017-11-05T03:40:59.445Z,32.8
2017-11-05T03:41:58.565Z,32.8
2017-11-05T03:42:59.732Z,32.8
2017-11-05T03:43:59.803Z,32.8
2017-11-05T03:44:58.577Z,32.8
2017-11-05T03:45:58.618Z,32.8
2017-11-05T03:46:58.741Z,32.8
2017-11-05T03:48:00.055Z,32.8
2017-11-05T03:48:59.031Z,32.8
2017-11-05T03:50:00.001Z,32.8
2017-11-05T03:50:58.934Z,32.8
2017-11-05T03:52:00.136Z,32.8
2017-11-05T03:53:00.404Z,32.8
2017-11-05T03:53:59.341Z,32.8
2017-11-05T03:54:59.414Z,32.8
2017-11-05T03:56:00.386Z,32.8
2017-11-05T03:57:00.450Z,32.8
2017-11-05T03:58:00.484Z,32.8
2017-11-05T03:58:59.646Z,32.8
2017-11-05T04:00:00.589Z,32.8
2017-11-05T04:01:00.834Z,32.8
2017-11-05T04:02:00.679Z,32.8
2017-11-05T04:02:59.826Z,32.8
2017-11-05T04:03:59.711Z,32.8
2017-11-05T04:05:00.807Z,32.8
2017-11-05T04:06:01.068Z,32.8
2017-11-05T04:07:01.118Z,32.8
2017-11-05T04:08:01.170Z,32.7
2017-11-05T04:09:00.167Z,32.8
2017-11-05T04:10:01.292Z,32.8
2017-11-05T04:11:00.015Z,32.8
2017-11-05T04:12:00.194Z,32.8
2017-11-05T04:13:00.083Z,32.8
2017-11-05T04:14:01.408Z,32.8
2017-11-05T04:15:00.164Z,32.8
2017-11-05T04:16:01.603Z,32.8
2017-11-05T04:17:01.320Z,32.8
2017-11-05T04:18:01.393Z,32.8
2017-11-05T04:19:00.599Z,32.8
2017-11-05T04:20:01.760Z,32.8
2017-11-05T04:21:01.610Z,32.8
2017-11-05T04:22:01.614Z,32.8
2017-11-05T04:23:01.689Z,32.8
2017-11-05T04:24:01.965Z,32.8
2017-11-05T04:25:00.740Z,32.8
2017-11-05T04:26:00.756Z,32.8
2017-11-05T04:27:01.873Z,32.8
2017-11-05T04:28:01.900Z,32.8
2017-11-05T04:29:01.918Z,32.8
2017-11-05T04:30:01.135Z,32.8
2017-11-05T04:31:00.926Z,32.8
2017-11-05T04:32:02.320Z,32.8
2017-11-05T04:33:02.351Z,32.8
2017-11-05T04:34:02.206Z,32.8
2017-11-05T04:35:01.157Z,32.8
2017-11-05T04:36:02.267Z,32.8
2017-11-05T04:37:01.222Z,32.8
2017-11-05T04:38:02.521Z,32.8
2017-11-05T04:39:02.421Z,32.8
2017-11-05T04:40:02.641Z,32.8
2017-11-05T04:41:01.409Z,32.8
2017-11-05T04:42:02.756Z,32.8
2017-11-05T04:43:01.714Z,32.8
2017-11-05T04:44:01.599Z,32.8
2017-11-05T04:45:01.659Z,32.8
2017-11-05T04:46:02.783Z,32.8
2017-11-05T04:47:03.094Z,32.8
2017-11-05T04:48:02.907Z,32.8
2017-11-05T04:49:01.866Z,32.8
2017-11-05T04:50:03.271Z,32.8
2017-11-05T04:51:02.215Z,32.8
2017-11-05T04:52:02.223Z,32.8
2017-11-05T04:53:02.261Z,32.8
2017-11-05T04:54:03.341Z,32.8
2017-11-05T04:55:02.233Z,32.8
2017-11-05T04:56:03.301Z,32.8
2017-11-05T04:57:03.569Z,32.8
2017-11-05T04:58:03.540Z,32.8
2017-11-05T04:59:03.366Z,32.8
2017-11-05T05:00:03.420Z,32.8
2017-11-05T05:01:03.474Z,32.8
2017-11-05T05:02:03.715Z,32.8
2017-11-05T05:03:02.697Z,32.8
2017-11-05T05:04:02.637Z,32.8
2017-11-05T05:05:03.798Z,32.8
2017-11-05T05:06:03.588Z,32.8
2017-11-05T05:07:02.785Z,32.8
2017-11-05T05:08:02.891Z,32.8
2017-11-05T05:09:02.702Z,32.8
2017-11-05T05:10:03.808Z,32.8
2017-11-05T05:11:02.781Z,32.8
2017-11-05T05:12:04.137Z,32.8
2017-11-05T05:13:03.472Z,32.8
2017-11-05T05:14:03.165Z,32.8
2017-11-05T05:15:03.149Z,32.8
2017-11-05T05:16:03.238Z,32.9
2017-11-05T05:17:03.218Z,32.8
2017-11-05T05:18:04.416Z,32.9
2017-11-05T05:19:03.339Z,32.8
2017-11-05T05:20:04.448Z,32.8
2017-11-05T05:21:04.280Z,32.8
2017-11-05T05:22:03.441Z,32.8
2017-11-05T05:23:04.515Z,32.9
2017-11-05T05:24:03.518Z,32.9
2017-11-05T05:25:03.378Z,32.9
2017-11-05T05:26:05.033Z,32.8
2017-11-05T05:27:03.518Z,32.8
2017-11-05T05:28:04.886Z,32.8
2017-11-05T05:29:04.716Z,32.8
2017-11-05T05:30:03.736Z,32.8
2017-11-05T05:31:03.770Z,32.9
2017-11-05T05:32:03.801Z,32.8
2017-11-05T05:33:03.893Z,32.8
2017-11-05T05:34:04.164Z,32.8
2017-11-05T05:35:04.039Z,32.8
2017-11-05T05:36:05.203Z,32.8
2017-11-05T05:37:04.218Z,32.8
2017-11-05T05:38:04.429Z,32.8
2017-11-05T05:39:04.256Z,32.8
2017-11-05T05:40:05.657Z,32.8
2017-11-05T05:41:04.557Z,32.8
2017-11-05T05:42:04.460Z,32.8
2017-11-05T05:43:04.643Z,32.8
2017-11-05T05:44:05.582Z,32.8
2017-11-05T05:45:05.872Z,32.8
2017-11-05T05:46:04.600Z,32.8
2017-11-05T05:47:04.667Z,32.9
2017-11-05T05:48:05.755Z,32.9
2017-11-05T05:49:04.940Z,32.9
2017-11-05T05:50:06.113Z,32.9
2017-11-05T05:51:06.121Z,32.9
2017-11-05T05:52:06.166Z,32.9
2017-11-05T05:53:04.966Z,32.9
2017-11-05T05:54:06.362Z,32.9
2017-11-05T05:55:05.308Z,32.9
2017-11-05T05:56:06.284Z,32.9
2017-11-05T05:57:05.265Z,32.9
2017-11-05T05:58:06.326Z,32.9
2017-11-05T05:59:05.271Z,32.9
2017-11-05T06:00:06.670Z,32.9
2017-11-05T06:01:06.456Z,32.9
2017-11-05T06:02:06.511Z,32.9
2017-11-05T06:03:05.436Z,32.9
2017-11-05T06:04:06.790Z,32.9
2017-11-05T06:05:06.612Z,32.9
2017-11-05T06:06:05.581Z,32.9
2017-11-05T06:07:06.717Z,32.9
2017-11-05T06:08:06.735Z,32.9
2017-11-05T06:09:07.027Z,32.8
2017-11-05T06:10:05.922Z,32.9
2017-11-05T06:11:06.876Z,32.8
2017-11-05T06:12:06.020Z,32.9
2017-11-05T06:13:05.888Z,32.9
2017-11-05T06:14:07.214Z,32.9
2017-11-05T06:15:06.024Z,32.9
2017-11-05T06:16:06.015Z,32.9
2017-11-05T06:17:06.287Z,32.9
2017-11-05T06:18:06.161Z,32.9
2017-11-05T06:19:07.325Z,32.9
2017-11-05T06:20:06.462Z,32.9
2017-11-05T06:21:06.579Z,32.9
2017-11-05T06:22:07.522Z,32.9
2017-11-05T06:23:07.520Z,32.9
2017-11-05T06:24:06.693Z,32.9
2017-11-05T06:25:06.749Z,32.9
2017-11-05T06:26:06.799Z,32.9
2017-11-05T06:27:07.728Z,32.9
2017-11-05T06:28:06.859Z,32.9
2017-11-05T06:29:07.974Z,32.9
2017-11-05T06:30:06.774Z,32.9
2017-11-05T06:31:06.806Z,32.8
2017-11-05T06:32:06.862Z,32.9
2017-11-05T06:33:06.881Z,32.9
2017-11-05T06:34:08.018Z,32.9
2017-11-05T06:35:07.031Z,32.9
2017-11-05T06:36:07.068Z,32.9
2017-11-05T06:37:08.212Z,32.9
2017-11-05T06:38:07.401Z,32.9
2017-11-05T06:39:07.459Z,32.9
2017-11-05T06:40:07.500Z,32.9
2017-11-05T06:41:08.447Z,32.9
2017-11-05T06:42:08.706Z,32.9
2017-11-05T06:43:08.740Z,32.9
2017-11-05T06:44:08.772Z,32.9
2017-11-05T06:45:07.496Z,32.9
2017-11-05T06:46:08.907Z,32.9
2017-11-05T06:47:08.993Z,32.9
2017-11-05T06:48:08.773Z,32.9
2017-11-05T06:49:09.009Z,32.9
2017-11-05T06:50:08.823Z,32.9
2017-11-05T06:51:07.792Z,32.9
2017-11-05T06:52:08.958Z,32.9
2017-11-05T06:53:07.874Z,32.9
2017-11-05T06:54:08.174Z,32.9
2017-11-05T06:55:08.131Z,32.9
2017-11-05T06:56:08.153Z,32.9
2017-11-05T06:57:09.138Z,32.9
2017-11-05T06:58:09.154Z,32.9
2017-11-05T06:59:09.178Z,32.9
2017-11-05T07:00:09.424Z,32.9
2017-11-05T07:01:08.221Z,32.9
2017-11-05T07:02:09.597Z,32.9
2017-11-05T07:03:09.660Z,33
2017-11-05T07:04:08.614Z,32.9
2017-11-05T07:05:09.755Z,32.9
2017-11-05T07:06:08.698Z,33
2017-11-05T07:07:09.606Z,32.9
2017-11-05T07:08:08.588Z,32.9
2017-11-05T07:09:09.921Z,33
2017-11-05T07:10:10.007Z,33
2017-11-05T07:11:08.937Z,32.9
2017-11-05T07:12:10.106Z,32.9
2017-11-05T07:13:09.920Z,33
2017-11-05T07:14:08.939Z,32.9
2017-11-05T07:15:10.081Z,33
2017-11-05T07:16:10.142Z,33
2017-11-05T07:17:10.262Z,33
2017-11-05T07:18:10.588Z,32.9
2017-11-05T07:19:09.525Z,32.9
2017-11-05T07:20:10.578Z,32.9
2017-11-05T07:21:09.331Z,32.9
2017-11-05T07:22:09.439Z,33
2017-11-05T07:23:10.546Z,33
2017-11-05T07:24:10.531Z,33
2017-11-05T07:25:09.530Z,33
2017-11-05T07:26:10.866Z,33
2017-11-05T07:27:09.832Z,33
2017-11-05T07:28:09.801Z,33
2017-11-05T07:29:10.744Z,33
2017-11-05T07:30:10.811Z,32.9
2017-11-05T07:31:09.965Z,33
2017-11-05T07:32:09.983Z,33
2017-11-05T07:33:11.062Z,33
2017-11-05T07:34:10.033Z,33
2017-11-05T07:35:10.968Z,33
2017-11-05T07:36:10.202Z,33
2017-11-05T07:37:09.998Z,33
2017-11-05T07:38:10.242Z,33
2017-11-05T07:39:10.107Z,33
2017-11-05T07:40:10.415Z,33
2017-11-05T07:41:11.551Z,33
2017-11-05T07:42:11.605Z,33
2017-11-05T07:43:11.502Z,33
2017-11-05T07:44:10.705Z,33
2017-11-05T07:45:10.751Z,33
2017-11-05T07:46:10.720Z,33
2017-11-05T07:47:11.909Z,33
2017-11-05T07:48:11.985Z,33
2017-11-05T07:49:12.041Z,33
2017-11-05T07:50:11.031Z,32.9
2017-11-05T07:51:10.905Z,32.9
2017-11-05T07:52:11.181Z,32.9
2017-11-05T07:53:11.286Z,32.9
2017-11-05T07:54:12.377Z,32.9
2017-11-05T07:55:12.452Z,32.9
2017-11-05T07:56:12.529Z,32.9
2017-11-05T07:57:12.348Z,33
2017-11-05T07:58:11.295Z,33
2017-11-05T07:59:12.609Z,32.9
2017-11-05T08:00:12.641Z,32.9
2017-11-05T08:01:11.438Z,32.9
2017-11-05T08:02:12.526Z,32.9
2017-11-05T08:03:11.481Z,32.9
2017-11-05T08:04:11.701Z,32.9
2017-11-05T08:05:12.878Z,32.9
2017-11-05T08:06:12.935Z,32.9
2017-11-05T08:07:12.786Z,32.9
2017-11-05T08:08:11.791Z,32.9
2017-11-05T08:09:11.820Z,32.9
2017-11-05T08:10:12.036Z,32.9
2017-11-05T08:11:13.119Z,32.9
2017-11-05T08:12:12.061Z,32.9
2017-11-05T08:13:12.110Z,32.9
2017-11-05T08:14:13.052Z,32.9
2017-11-05T08:15:12.204Z,32.9
2017-11-05T08:16:12.254Z,32.9
2017-11-05T08:17:12.136Z,32.9
2017-11-05T08:18:12.139Z,32.9
2017-11-05T08:19:13.307Z,32.9
2017-11-05T08:20:12.231Z,32.9
2017-11-05T08:21:13.551Z,32.9
2017-11-05T08:22:13.397Z,32.9
2017-11-05T08:23:12.340Z,32.9
2017-11-05T08:24:13.456Z,32.9
2017-11-05T08:25:13.464Z,32.9
2017-11-05T08:26:12.699Z,32.9
2017-11-05T08:27:13.857Z,32.9
2017-11-05T08:28:12.624Z,32.9
2017-11-05T08:29:12.668Z,32.9
2017-11-05T08:30:13.825Z,32.9
2017-11-05T08:31:12.820Z,32.9
2017-11-05T08:32:13.013Z,32.9
2017-11-05T08:33:13.031Z,32.9
2017-11-05T08:34:14.157Z,32.9
2017-11-05T08:35:14.201Z,32.8
2017-11-05T08:36:13.189Z,32.8
2017-11-05T08:37:13.309Z,32.8
2017-11-05T08:38:14.250Z,32.8
2017-11-05T08:39:14.525Z,32.8
2017-11-05T08:40:13.228Z,32.8
2017-11-05T08:41:14.635Z,32.9
2017-11-05T08:42:14.388Z,32.8
2017-11-05T08:43:13.564Z,32.8
2017-11-05T08:44:14.501Z,32.8
2017-11-05T08:45:13.616Z,32.8
2017-11-05T08:46:13.530Z,32.8
2017-11-05T08:47:14.865Z,32.8
2017-11-05T08:48:13.831Z,32.8
2017-11-05T08:49:13.808Z,32.9
2017-11-05T08:50:13.751Z,32.8
2017-11-05T08:51:15.076Z,32.8
2017-11-05T08:52:14.976Z,32.8
2017-11-05T08:53:15.229Z,32.8
2017-11-05T08:54:14.269Z,32.8
2017-11-05T08:55:14.045Z,32.8
2017-11-05T08:56:14.366Z,32.8
2017-11-05T08:57:14.215Z,32.8
2017-11-05T08:58:15.374Z,32.8
2017-11-05T08:59:15.397Z,32.8
2017-11-05T09:00:15.516Z,32.8
2017-11-05T09:01:15.550Z,32.8
2017-11-05T09:02:15.633Z,32.8
2017-11-05T09:03:15.862Z,32.8
2017-11-05T09:04:15.728Z,32.8
2017-11-05T09:05:14.729Z,32.8
2017-11-05T09:06:14.828Z,32.8
2017-11-05T09:07:15.981Z,32.8
2017-11-05T09:08:16.236Z,32.8
2017-11-05T09:09:16.071Z,32.8
2017-11-05T09:10:16.320Z,32.8
2017-11-05T09:11:15.062Z,32.8
2017-11-05T09:12:15.351Z,32.8
2017-11-05T09:13:15.238Z,32.8
2017-11-05T09:14:15.226Z,32.8
2017-11-05T09:15:15.306Z,32.8
2017-11-05T09:16:16.618Z,32.8
2017-11-05T09:17:15.377Z,32.8
2017-11-05T09:18:16.523Z,32.8
2017-11-05T09:19:15.491Z,32.8
2017-11-05T09:20:15.541Z,32.8
2017-11-05T09:21:16.590Z,32.8
2017-11-05T09:22:16.637Z,32.8
2017-11-05T09:23:16.897Z,32.8
2017-11-05T09:24:15.612Z,32.8
2017-11-05T09:25:16.745Z,32.8
2017-11-05T09:26:15.672Z,32.8
2017-11-05T09:27:15.988Z,32.7
2017-11-05T09:28:16.855Z,32.7
2017-11-05T09:29:16.041Z,32.7
2017-11-05T09:30:15.910Z,32.7
2017-11-05T09:31:15.956Z,32.7
2017-11-05T09:32:17.038Z,32.7
2017-11-05T09:33:17.050Z,32.7
2017-11-05T09:34:17.358Z,32.7
2017-11-05T09:35:16.103Z,32.7
2017-11-05T09:36:16.159Z,32.7
2017-11-05T09:37:16.170Z,32.7
2017-11-05T09:38:17.322Z,32.7
2017-11-05T09:39:16.264Z,32.7
2017-11-05T09:40:16.529Z,32.7
2017-11-05T09:41:17.457Z,32.7
2017-11-05T09:42:16.636Z,32.7
2017-11-05T09:43:16.652Z,32.7
2017-11-05T09:44:16.709Z,32.7
2017-11-05T09:45:16.746Z,32.7
2017-11-05T09:46:17.922Z,32.7
2017-11-05T09:47:17.751Z,32.7
2017-11-05T09:48:16.696Z,32.7
2017-11-05T09:49:16.896Z,32.7
2017-11-05T09:50:16.783Z,32.8
2017-11-05T09:51:17.024Z,32.8
2017-11-05T09:52:18.003Z,32.7
2017-11-05T09:53:17.085Z,32.7
2017-11-05T09:54:18.235Z,32.7
2017-11-05T09:55:16.998Z,32.7
2017-11-05T09:56:18.385Z,32.7
2017-11-05T09:57:18.364Z,32.7
2017-11-05T09:58:17.360Z,32.7
2017-11-05T09:59:17.415Z,32.7
2017-11-05T10:00:17.246Z,32.7
2017-11-05T10:01:18.400Z,32.7
2017-11-05T10:02:18.415Z,32.7
2017-11-05T10:03:18.428Z,32.7
2017-11-05T10:04:18.446Z,32.7
2017-11-05T10:05:18.569Z,32.7
2017-11-05T10:06:17.702Z,32.6
2017-11-05T10:07:18.621Z,32.6
2017-11-05T10:08:17.590Z,32.6
2017-11-05T10:09:17.662Z,32.6
2017-11-05T10:10:18.803Z,32.6
2017-11-05T10:11:18.036Z,32.5
2017-11-05T10:12:17.887Z,32.5
2017-11-05T10:13:17.967Z,32.5
2017-11-05T10:14:18.039Z,32.5
2017-11-05T10:15:18.228Z,32.5
2017-11-05T10:16:19.420Z,32.4
2017-11-05T10:17:18.191Z,32.4
2017-11-05T10:18:18.422Z,32.4
2017-11-05T10:19:19.304Z,32.4
2017-11-05T10:20:18.433Z,32.4
2017-11-05T10:21:19.360Z,32.4
2017-11-05T10:22:18.288Z,32.4
2017-11-05T10:23:18.538Z,32.4
2017-11-05T10:24:18.596Z,32.4
2017-11-05T10:25:19.534Z,32.4
2017-11-05T10:26:18.459Z,32.4
2017-11-05T10:27:18.602Z,32.4
2017-11-05T10:28:18.786Z,32.3
2017-11-05T10:29:18.679Z,32.3
2017-11-05T10:30:20.019Z,32.3
2017-11-05T10:31:19.839Z,32.3
2017-11-05T10:32:18.838Z,32.3
2017-11-05T10:33:19.034Z,32.3
2017-11-05T10:34:18.944Z,32.3
2017-11-05T10:35:20.234Z,32.2
2017-11-05T10:36:18.999Z,32.2
2017-11-05T10:37:20.168Z,32.2
2017-11-05T10:38:19.129Z,32.2
2017-11-05T10:39:20.463Z,32.2
2017-11-05T10:40:19.545Z,32.2
2017-11-05T10:41:19.307Z,32.2
2017-11-05T10:42:19.549Z,32.2
2017-11-05T10:43:19.361Z,32.2
2017-11-05T10:44:20.735Z,32.2
2017-11-05T10:45:19.736Z,32.2
2017-11-05T10:46:19.673Z,32.2
2017-11-05T10:47:19.530Z,32.2
2017-11-05T10:48:19.837Z,32.2
2017-11-05T10:49:20.949Z,32.2
2017-11-05T10:50:19.825Z,32.2
2017-11-05T10:51:19.849Z,32.1
2017-11-05T10:52:20.106Z,32.1
2017-11-05T10:53:20.987Z,32.1
2017-11-05T10:54:21.104Z,32.1
2017-11-05T10:55:21.132Z,32.1
2017-11-05T10:56:21.369Z,32.1
2017-11-05T10:57:20.381Z,32.1
2017-11-05T10:58:21.304Z,32.1
2017-11-05T10:59:21.320Z,32.1
2017-11-05T11:00:20.319Z,32.1
2017-11-05T11:01:21.456Z,32
2017-11-05T11:02:20.447Z,32
2017-11-05T11:03:21.729Z,32
2017-11-05T11:04:20.481Z,32
2017-11-05T11:05:20.555Z,32
2017-11-05T11:06:20.625Z,32
2017-11-05T11:07:20.660Z,32
2017-11-05T11:08:21.760Z,31.9
2017-11-05T11:09:20.915Z,31.9
2017-11-05T11:10:21.791Z,31.9
2017-11-05T11:11:21.890Z,31.9
2017-11-05T11:12:21.026Z,31.9
2017-11-05T11:13:22.016Z,31.9
2017-11-05T11:14:22.107Z,31.9
2017-11-05T11:15:22.355Z,31.9
2017-11-05T11:16:22.446Z,32
2017-11-05T11:17:21.211Z,32
2017-11-05T11:18:21.242Z,32
2017-11-05T11:19:22.600Z,32
2017-11-05T11:20:22.438Z,32
2017-11-05T11:21:22.557Z,32
2017-11-05T11:22:22.825Z,32
2017-11-05T11:23:22.626Z,32
2017-11-05T11:24:21.816Z,32
2017-11-05T11:25:21.881Z,32
2017-11-05T11:26:21.965Z,32
2017-11-05T11:27:21.820Z,32
2017-11-05T11:28:23.146Z,32
2017-11-05T11:29:22.110Z,32
2017-11-05T11:30:23.273Z,32
2017-11-05T11:31:22.223Z,32
2017-11-05T11:32:22.098Z,32
2017-11-05T11:33:22.165Z,32
2017-11-05T11:34:23.550Z,31.9
2017-11-05T11:35:23.395Z,31.9
2017-11-05T11:36:22.423Z,31.9
2017-11-05T11:37:23.765Z,31.8
2017-11-05T11:38:23.606Z,31.8
2017-11-05T11:39:23.861Z,31.8
2017-11-05T11:40:23.710Z,31.7
2017-11-05T11:41:22.814Z,31.7
2017-11-05T11:42:23.990Z,31.7
2017-11-05T11:43:22.948Z,31.6
2017-11-05T11:44:22.815Z,31.6
2017-11-05T11:45:22.892Z,31.6
2017-11-05T11:46:24.070Z,31.6
2017-11-05T11:47:23.315Z,31.5
2017-11-05T11:48:24.367Z,31.4
2017-11-05T11:49:23.305Z,31.4
2017-11-05T11:50:24.253Z,31.3
2017-11-05T11:51:24.622Z,31.3
2017-11-05T11:52:23.336Z,31.2
2017-11-05T11:53:24.488Z,31.1
2017-11-05T11:54:23.452Z,31.1
2017-11-05T11:55:24.604Z,31
2017-11-05T11:56:23.719Z,31
2017-11-05T11:57:24.903Z,30.9
2017-11-05T11:58:23.662Z,30.9
2017-11-05T11:59:24.805Z,30.8
2017-11-05T12:00:23.945Z,30.8
2017-11-05T12:01:23.801Z,30.8
2017-11-05T12:02:24.156Z,30.7
2017-11-05T12:03:23.906Z,30.7
2017-11-05T12:04:25.057Z,30.7
2017-11-05T12:05:24.021Z,30.7
2017-11-05T12:06:24.304Z,30.7
2017-11-05T12:07:25.402Z,30.7
2017-11-05T12:08:24.158Z,30.6
2017-11-05T12:09:24.402Z,30.6
2017-11-05T12:10:24.238Z,30.6
2017-11-05T12:11:25.641Z,30.6
2017-11-05T12:12:24.548Z,30.5
2017-11-05T12:13:24.522Z,30.5
2017-11-05T12:14:25.707Z,30.4
2017-11-05T12:15:25.553Z,30.3
2017-11-05T12:16:24.515Z,30.2
2017-11-05T12:17:24.731Z,30.1
2017-11-05T12:18:24.783Z,30
2017-11-05T12:19:25.734Z,29.9
2017-11-05T12:20:26.028Z,29.9
2017-11-05T12:21:26.140Z,29.9
2017-11-05T12:29:49.729Z,29.2
2017-11-05T12:30:48.813Z,29.2
2017-11-05T12:31:48.672Z,29.1
2017-11-05T12:32:49.737Z,29
2017-11-05T12:33:48.678Z,28.9
2017-11-05T12:34:50.059Z,28.8
2017-11-05T12:35:48.867Z,28.7
2017-11-05T12:36:50.166Z,28.6
2017-11-05T12:37:50.033Z,28.6
2017-11-05T12:38:49.017Z,28.5
2017-11-05T12:39:49.104Z,28.5
2017-11-05T12:40:49.385Z,28.4
2017-11-05T12:41:49.454Z,28.4
2017-11-05T12:42:49.302Z,28.5
2017-11-05T12:43:50.463Z,28.5
2017-11-05T12:44:49.433Z,28.5
2017-11-05T12:45:49.665Z,28.4
2017-11-05T12:46:50.872Z,28.4
2017-11-05T12:47:50.660Z,28.4
2017-11-05T12:48:49.640Z,28.4
2017-11-05T12:49:50.760Z,28.4
2017-11-05T12:50:51.038Z,28.3
2017-11-05T12:51:50.054Z,28.3
2017-11-05T12:52:50.054Z,28.4
2017-11-05T12:53:49.949Z,28.4
2017-11-05T12:54:51.345Z,28.4
2017-11-05T12:55:51.123Z,28.5
2017-11-05T12:56:51.385Z,28.6
2017-11-05T12:57:51.462Z,28.6
2017-11-05T12:58:50.230Z,28.5
2017-11-05T12:59:51.311Z,28.5
2017-11-05T13:00:50.321Z,28.4
2017-11-05T13:01:51.435Z,28.4
2017-11-05T13:02:51.675Z,28.3
2017-11-05T13:03:50.605Z,28.3
2017-11-05T13:04:50.717Z,28.4
2017-11-05T13:05:50.711Z,28.5
2017-11-05T13:06:50.502Z,28.6
2017-11-05T13:07:50.762Z,28.6
2017-11-05T13:08:51.701Z,28.6
2017-11-05T13:09:50.940Z,28.5
2017-11-05T13:10:50.920Z,28.5
2017-11-05T13:11:52.040Z,28.4
2017-11-05T13:12:50.805Z,28.4
2017-11-05T13:13:52.174Z,28.4
2017-11-05T13:14:52.275Z,28.3
2017-11-05T13:15:51.021Z,28.3
2017-11-05T13:16:51.053Z,28.3
2017-11-05T13:17:52.144Z,28.2
2017-11-05T13:18:52.213Z,28.3
2017-11-05T13:19:52.196Z,28.3
2017-11-05T13:20:51.443Z,28.3
2017-11-05T13:21:51.533Z,28.3
2017-11-05T13:22:52.731Z,28.3
2017-11-05T13:23:51.642Z,28.2
2017-11-05T13:24:52.610Z,28.2
2017-11-05T13:25:52.860Z,28.2
2017-11-05T13:26:51.796Z,28.2
2017-11-05T13:27:51.683Z,28.3
2017-11-05T13:28:51.869Z,28.2
2017-11-05T13:29:51.789Z,28.2
2017-11-05T13:30:53.100Z,28.2
2017-11-05T13:31:51.887Z,28.1
2017-11-05T13:32:51.896Z,28.1
2017-11-05T13:33:51.903Z,28.1
2017-11-05T13:34:51.890Z,28.1
2017-11-05T13:35:53.279Z,28.1
2017-11-05T13:36:53.329Z,28.2